sensor_id;sensor_type;location;lat;lon;timestamp;P1;durP1;ratioP1;P2;durP2;ratioP2
51465;SDS011;37542;50.164;9.086;2022-09-24T00:01:25;4.57;;;2.75;;
51465;SDS011;37542;50.164;9.086;2022-09-24T00:05:10;4.40;;;2.45;;
51465;SDS011;37542;50.164;9.086;2022-09-24T00:08:51;4.38;;;2.42;;
51465;SDS011;37542;50.164;9.086;2022-09-24T00:12:34;5.50;;;3.33;;
51465;SDS011;37542;50.164;9.086;2022-09-24T00:16:16;3.88;;;2.83;;
51465;SDS011;37542;50.164;9.086;2022-09-24T00:20:00;3.30;;;2.30;;
51465;SDS011;37542;50.164;9.086;2022-09-24T00:23:41;3.30;;;2.72;;
51465;SDS011;37542;50.164;9.086;2022-09-24T00:27:22;4.32;;;2.67;;
51465;SDS011;37542;50.164;9.086;2022-09-24T00:31:04;4.45;;;2.60;;
51465;SDS011;37542;50.164;9.086;2022-09-24T00:34:46;3.33;;;2.40;;
51465;SDS011;37542;50.164;9.086;2022-09-24T00:38:27;7.35;;;3.65;;
51465;SDS011;37542;50.164;9.086;2022-09-24T00:42:09;7.18;;;3.25;;
51465;SDS011;37542;50.164;9.086;2022-09-24T00:45:51;4.68;;;3.08;;
51465;SDS011;37542;50.164;9.086;2022-09-24T00:54:00;5.28;;;2.83;;
51465;SDS011;37542;50.164;9.086;2022-09-24T00:57:47;5.95;;;3.78;;
51465;SDS011;37542;50.164;9.086;2022-09-24T01:01:31;3.25;;;2.38;;
51465;SDS011;37542;50.164;9.086;2022-09-24T01:05:12;4.03;;;2.88;;
51465;SDS011;37542;50.164;9.086;2022-09-24T01:08:53;3.22;;;2.78;;
51465;SDS011;37542;50.164;9.086;2022-09-24T01:29:50;5.65;;;3.45;;
51465;SDS011;37542;50.164;9.086;2022-09-24T01:33:45;4.63;;;3.40;;
51465;SDS011;37542;50.164;9.086;2022-09-24T01:41:16;3.80;;;2.75;;
51465;SDS011;37542;50.164;9.086;2022-09-24T01:44:59;4.78;;;2.80;;
51465;SDS011;37542;50.164;9.086;2022-09-24T01:48:41;3.88;;;2.97;;
51465;SDS011;37542;50.164;9.086;2022-09-24T01:52:26;4.45;;;3.20;;
51465;SDS011;37542;50.164;9.086;2022-09-24T01:56:17;5.63;;;3.17;;
51465;SDS011;37542;50.164;9.086;2022-09-24T02:00:10;5.18;;;3.03;;
51465;SDS011;37542;50.164;9.086;2022-09-24T02:03:56;4.47;;;3.30;;
51465;SDS011;37542;50.164;9.086;2022-09-24T02:07:50;6.55;;;3.05;;
51465;SDS011;37542;50.164;9.086;2022-09-24T02:12:11;4.05;;;3.13;;
51465;SDS011;37542;50.164;9.086;2022-09-24T02:15:59;4.38;;;3.15;;
51465;SDS011;37542;50.164;9.086;2022-09-24T02:19:44;4.82;;;3.33;;
51465;SDS011;37542;50.164;9.086;2022-09-24T02:23:29;5.38;;;3.28;;
51465;SDS011;37542;50.164;9.086;2022-09-24T02:27:16;4.18;;;2.72;;
51465;SDS011;37542;50.164;9.086;2022-09-24T02:31:01;3.58;;;2.60;;
51465;SDS011;37542;50.164;9.086;2022-09-24T02:34:55;3.92;;;2.90;;
51465;SDS011;37542;50.164;9.086;2022-09-24T02:38:42;4.28;;;2.53;;
51465;SDS011;37542;50.164;9.086;2022-09-24T02:42:25;4.15;;;2.60;;
51465;SDS011;37542;50.164;9.086;2022-09-24T02:46:06;4.75;;;3.17;;
51465;SDS011;37542;50.164;9.086;2022-09-24T02:49:49;6.35;;;3.10;;
51465;SDS011;37542;50.164;9.086;2022-09-24T02:53:31;3.95;;;2.92;;
51465;SDS011;37542;50.164;9.086;2022-09-24T02:57:12;3.60;;;2.97;;
51465;SDS011;37542;50.164;9.086;2022-09-24T03:00:53;4.78;;;2.80;;
51465;SDS011;37542;50.164;9.086;2022-09-24T03:04:34;3.92;;;3.20;;
51465;SDS011;37542;50.164;9.086;2022-09-24T03:08:15;5.55;;;3.28;;
51465;SDS011;37542;50.164;9.086;2022-09-24T03:11:56;4.30;;;3.10;;
51465;SDS011;37542;50.164;9.086;2022-09-24T03:15:39;4.30;;;3.20;;
51465;SDS011;37542;50.164;9.086;2022-09-24T03:19:20;3.97;;;2.83;;
51465;SDS011;37542;50.164;9.086;2022-09-24T03:23:01;4.20;;;2.70;;
51465;SDS011;37542;50.164;9.086;2022-09-24T03:26:42;3.17;;;2.67;;
51465;SDS011;37542;50.164;9.086;2022-09-24T03:30:22;4.15;;;3.40;;
51465;SDS011;37542;50.164;9.086;2022-09-24T03:34:22;4.35;;;2.80;;
51465;SDS011;37542;50.164;9.086;2022-09-24T03:38:03;5.07;;;2.47;;
51465;SDS011;37542;50.164;9.086;2022-09-24T03:41:43;4.00;;;2.80;;
51465;SDS011;37542;50.164;9.086;2022-09-24T03:45:24;6.07;;;3.00;;
51465;SDS011;37542;50.164;9.086;2022-09-24T03:49:05;4.68;;;3.08;;
51465;SDS011;37542;50.164;9.086;2022-09-24T03:52:45;5.35;;;2.95;;
51465;SDS011;37542;50.164;9.086;2022-09-24T03:56:26;4.05;;;2.55;;
51465;SDS011;37542;50.164;9.086;2022-09-24T04:00:07;3.80;;;3.00;;
51465;SDS011;37542;50.164;9.086;2022-09-24T04:03:49;4.72;;;2.70;;
51465;SDS011;37542;50.164;9.086;2022-09-24T04:07:30;5.53;;;2.67;;
51465;SDS011;37542;50.164;9.086;2022-09-24T04:11:11;3.88;;;2.95;;
51465;SDS011;37542;50.164;9.086;2022-09-24T04:14:51;3.88;;;2.63;;
51465;SDS011;37542;50.164;9.086;2022-09-24T04:18:32;5.45;;;2.85;;
51465;SDS011;37542;50.164;9.086;2022-09-24T04:22:14;3.47;;;2.45;;
51465;SDS011;37542;50.164;9.086;2022-09-24T04:25:55;3.95;;;2.80;;
51465;SDS011;37542;50.164;9.086;2022-09-24T04:29:38;3.65;;;2.53;;
51465;SDS011;37542;50.164;9.086;2022-09-24T04:33:18;7.13;;;3.20;;
51465;SDS011;37542;50.164;9.086;2022-09-24T04:36:59;4.25;;;3.05;;
51465;SDS011;37542;50.164;9.086;2022-09-24T04:40:40;3.42;;;2.80;;
51465;SDS011;37542;50.164;9.086;2022-09-24T04:44:21;4.53;;;3.17;;
51465;SDS011;37542;50.164;9.086;2022-09-24T04:48:02;5.68;;;3.40;;
51465;SDS011;37542;50.164;9.086;2022-09-24T04:51:43;4.75;;;3.00;;
51465;SDS011;37542;50.164;9.086;2022-09-24T04:55:24;8.38;;;3.17;;
51465;SDS011;37542;50.164;9.086;2022-09-24T04:59:06;4.53;;;3.47;;
51465;SDS011;37542;50.164;9.086;2022-09-24T05:02:53;4.47;;;2.95;;
51465;SDS011;37542;50.164;9.086;2022-09-24T05:06:37;4.93;;;3.00;;
51465;SDS011;37542;50.164;9.086;2022-09-24T05:10:18;4.68;;;3.20;;
51465;SDS011;37542;50.164;9.086;2022-09-24T05:13:59;3.88;;;3.10;;
51465;SDS011;37542;50.164;9.086;2022-09-24T05:17:40;4.43;;;2.88;;
51465;SDS011;37542;50.164;9.086;2022-09-24T05:21:21;4.75;;;2.63;;
51465;SDS011;37542;50.164;9.086;2022-09-24T05:25:02;4.47;;;2.63;;
51465;SDS011;37542;50.164;9.086;2022-09-24T05:28:42;4.40;;;2.85;;
51465;SDS011;37542;50.164;9.086;2022-09-24T05:32:23;3.80;;;2.72;;
51465;SDS011;37542;50.164;9.086;2022-09-24T05:36:04;7.22;;;3.28;;
51465;SDS011;37542;50.164;9.086;2022-09-24T05:39:45;7.05;;;3.38;;
51465;SDS011;37542;50.164;9.086;2022-09-24T05:43:26;5.80;;;3.55;;
51465;SDS011;37542;50.164;9.086;2022-09-24T05:47:07;5.78;;;3.85;;
51465;SDS011;37542;50.164;9.086;2022-09-24T05:50:48;4.18;;;3.15;;
51465;SDS011;37542;50.164;9.086;2022-09-24T05:54:34;4.80;;;3.10;;
51465;SDS011;37542;50.164;9.086;2022-09-24T05:58:18;6.07;;;3.13;;
51465;SDS011;37542;50.164;9.086;2022-09-24T06:01:59;3.95;;;3.22;;
51465;SDS011;37542;50.164;9.086;2022-09-24T06:05:43;5.15;;;3.40;;
51465;SDS011;37542;50.164;9.086;2022-09-24T06:09:27;6.32;;;3.13;;
51465;SDS011;37542;50.164;9.086;2022-09-24T06:13:08;5.55;;;3.47;;
51465;SDS011;37542;50.164;9.086;2022-09-24T06:16:50;3.45;;;2.85;;
51465;SDS011;37542;50.164;9.086;2022-09-24T06:20:31;5.30;;;3.80;;
51465;SDS011;37542;50.164;9.086;2022-09-24T06:24:12;4.60;;;3.42;;
51465;SDS011;37542;50.164;9.086;2022-09-24T06:27:56;4.32;;;3.55;;
51465;SDS011;37542;50.164;9.086;2022-09-24T06:31:42;6.25;;;3.20;;
51465;SDS011;37542;50.164;9.086;2022-09-24T06:35:24;5.78;;;4.13;;
51465;SDS011;37542;50.164;9.086;2022-09-24T06:39:06;4.65;;;3.88;;
51465;SDS011;37542;50.164;9.086;2022-09-24T06:42:49;3.92;;;3.25;;
51465;SDS011;37542;50.164;9.086;2022-09-24T06:46:42;4.22;;;3.38;;
51465;SDS011;37542;50.164;9.086;2022-09-24T06:50:53;3.97;;;3.30;;
51465;SDS011;37542;50.164;9.086;2022-09-24T06:54:35;4.90;;;3.67;;
51465;SDS011;37542;50.164;9.086;2022-09-24T06:58:17;6.45;;;3.60;;
51465;SDS011;37542;50.164;9.086;2022-09-24T07:01:59;4.90;;;3.15;;
51465;SDS011;37542;50.164;9.086;2022-09-24T07:05:40;5.22;;;3.40;;
51465;SDS011;37542;50.164;9.086;2022-09-24T07:09:21;4.60;;;3.60;;
51465;SDS011;37542;50.164;9.086;2022-09-24T07:13:08;3.40;;;2.78;;
51465;SDS011;37542;50.164;9.086;2022-09-24T07:17:09;3.90;;;3.25;;
51465;SDS011;37542;50.164;9.086;2022-09-24T07:20:51;4.40;;;3.28;;
51465;SDS011;37542;50.164;9.086;2022-09-24T07:24:52;5.22;;;3.67;;
51465;SDS011;37542;50.164;9.086;2022-09-24T07:28:36;7.82;;;3.80;;
51465;SDS011;37542;50.164;9.086;2022-09-24T07:32:17;6.20;;;4.70;;
51465;SDS011;37542;50.164;9.086;2022-09-24T07:35:58;7.03;;;5.43;;
51465;SDS011;37542;50.164;9.086;2022-09-24T07:47:22;5.00;;;3.92;;
51465;SDS011;37542;50.164;9.086;2022-09-24T07:55:58;6.53;;;3.80;;
51465;SDS011;37542;50.164;9.086;2022-09-24T07:59:43;5.60;;;3.90;;
51465;SDS011;37542;50.164;9.086;2022-09-24T08:03:27;5.82;;;3.88;;
51465;SDS011;37542;50.164;9.086;2022-09-24T08:07:09;6.45;;;4.25;;
51465;SDS011;37542;50.164;9.086;2022-09-24T08:11:19;5.78;;;4.25;;
51465;SDS011;37542;50.164;9.086;2022-09-24T08:19:21;5.22;;;4.20;;
51465;SDS011;37542;50.164;9.086;2022-09-24T08:23:07;4.82;;;3.92;;
51465;SDS011;37542;50.164;9.086;2022-09-24T08:31:47;5.15;;;3.95;;
51465;SDS011;37542;50.164;9.086;2022-09-24T08:35:28;5.95;;;4.45;;
51465;SDS011;37542;50.164;9.086;2022-09-24T09:07:41;6.18;;;4.05;;
51465;SDS011;37542;50.164;9.086;2022-09-24T09:12:26;4.18;;;3.47;;
51465;SDS011;37542;50.164;9.086;2022-09-24T09:16:57;4.75;;;3.92;;
51465;SDS011;37542;50.164;9.086;2022-09-24T09:20:49;4.88;;;3.75;;
51465;SDS011;37542;50.164;9.086;2022-09-24T09:24:36;6.22;;;4.38;;
51465;SDS011;37542;50.164;9.086;2022-09-24T09:28:36;8.38;;;4.55;;
51465;SDS011;37542;50.164;9.086;2022-09-24T09:41:46;5.70;;;4.47;;
51465;SDS011;37542;50.164;9.086;2022-09-24T09:54:38;5.43;;;4.35;;
51465;SDS011;37542;50.164;9.086;2022-09-24T09:59:07;5.32;;;3.90;;
51465;SDS011;37542;50.164;9.086;2022-09-24T10:02:57;6.00;;;3.88;;
51465;SDS011;37542;50.164;9.086;2022-09-24T10:06:38;7.00;;;4.15;;
51465;SDS011;37542;50.164;9.086;2022-09-24T10:39:26;5.28;;;3.63;;
51465;SDS011;37542;50.164;9.086;2022-09-24T10:55:40;4.93;;;3.30;;
51465;SDS011;37542;50.164;9.086;2022-09-24T11:04:02;7.95;;;4.32;;
51465;SDS011;37542;50.164;9.086;2022-09-24T12:09:47;2.38;;;1.80;;
51465;SDS011;37542;50.164;9.086;2022-09-24T12:13:50;5.93;;;2.30;;
51465;SDS011;37542;50.164;9.086;2022-09-24T12:17:58;2.88;;;1.92;;
51465;SDS011;37542;50.164;9.086;2022-09-24T12:22:23;2.30;;;1.95;;
51465;SDS011;37542;50.164;9.086;2022-09-24T12:26:07;1.92;;;1.63;;
51465;SDS011;37542;50.164;9.086;2022-09-24T12:29:57;2.58;;;1.90;;
51465;SDS011;37542;50.164;9.086;2022-09-24T12:34:09;2.65;;;2.10;;
51465;SDS011;37542;50.164;9.086;2022-09-24T12:42:33;6.57;;;2.13;;
51465;SDS011;37542;50.164;9.086;2022-09-24T12:46:21;4.03;;;1.98;;
51465;SDS011;37542;50.164;9.086;2022-09-24T12:50:21;5.18;;;2.63;;
51465;SDS011;37542;50.164;9.086;2022-09-24T12:54:21;3.08;;;2.17;;
51465;SDS011;37542;50.164;9.086;2022-09-24T12:58:23;5.28;;;2.15;;
51465;SDS011;37542;50.164;9.086;2022-09-24T13:03:01;2.67;;;2.00;;
51465;SDS011;37542;50.164;9.086;2022-09-24T13:14:04;5.18;;;1.75;;
51465;SDS011;37542;50.164;9.086;2022-09-24T13:24:11;4.05;;;1.80;;
51465;SDS011;37542;50.164;9.086;2022-09-24T13:28:47;4.28;;;3.08;;
51465;SDS011;37542;50.164;9.086;2022-09-24T13:57:01;3.22;;;2.13;;
51465;SDS011;37542;50.164;9.086;2022-09-24T14:05:35;3.42;;;2.03;;
51465;SDS011;37542;50.164;9.086;2022-09-24T14:14:41;3.30;;;1.90;;
51465;SDS011;37542;50.164;9.086;2022-09-24T14:18:41;3.75;;;2.20;;
51465;SDS011;37542;50.164;9.086;2022-09-24T14:27:15;3.33;;;2.10;;
51465;SDS011;37542;50.164;9.086;2022-09-24T14:31:09;6.32;;;2.20;;
51465;SDS011;37542;50.164;9.086;2022-09-24T14:45:03;2.40;;;2.05;;
51465;SDS011;37542;50.164;9.086;2022-09-24T15:13:59;3.92;;;2.22;;
51465;SDS011;37542;50.164;9.086;2022-09-24T15:17:47;3.78;;;2.30;;
51465;SDS011;37542;50.164;9.086;2022-09-24T15:21:28;3.10;;;2.47;;
51465;SDS011;37542;50.164;9.086;2022-09-24T15:25:09;3.63;;;2.53;;
51465;SDS011;37542;50.164;9.086;2022-09-24T15:28:53;4.80;;;2.30;;
51465;SDS011;37542;50.164;9.086;2022-09-24T15:32:36;4.80;;;2.20;;
51465;SDS011;37542;50.164;9.086;2022-09-24T15:36:18;2.88;;;1.88;;
51465;SDS011;37542;50.164;9.086;2022-09-24T15:40:07;4.03;;;2.10;;
51465;SDS011;37542;50.164;9.086;2022-09-24T15:43:57;3.92;;;2.33;;
51465;SDS011;37542;50.164;9.086;2022-09-24T15:47:38;2.22;;;1.77;;
51465;SDS011;37542;50.164;9.086;2022-09-24T15:51:20;3.45;;;1.90;;
51465;SDS011;37542;50.164;9.086;2022-09-24T15:55:05;2.03;;;1.80;;
51465;SDS011;37542;50.164;9.086;2022-09-24T15:58:55;3.15;;;1.98;;
51465;SDS011;37542;50.164;9.086;2022-09-24T16:02:37;4.72;;;2.17;;
51465;SDS011;37542;50.164;9.086;2022-09-24T16:06:19;4.18;;;1.98;;
51465;SDS011;37542;50.164;9.086;2022-09-24T16:10:03;2.90;;;2.33;;
51465;SDS011;37542;50.164;9.086;2022-09-24T16:13:44;3.25;;;2.35;;
51465;SDS011;37542;50.164;9.086;2022-09-24T16:17:25;3.08;;;2.10;;
51465;SDS011;37542;50.164;9.086;2022-09-24T16:21:07;2.50;;;1.92;;
51465;SDS011;37542;50.164;9.086;2022-09-24T16:24:48;4.50;;;2.17;;
51465;SDS011;37542;50.164;9.086;2022-09-24T16:28:29;4.60;;;2.28;;
51465;SDS011;37542;50.164;9.086;2022-09-24T16:32:10;5.78;;;2.20;;
51465;SDS011;37542;50.164;9.086;2022-09-24T16:35:52;3.53;;;2.63;;
51465;SDS011;37542;50.164;9.086;2022-09-24T16:39:33;2.95;;;2.08;;
51465;SDS011;37542;50.164;9.086;2022-09-24T16:43:14;3.47;;;2.75;;
51465;SDS011;37542;50.164;9.086;2022-09-24T16:46:55;3.65;;;2.40;;
51465;SDS011;37542;50.164;9.086;2022-09-24T16:50:36;9.80;;;5.75;;
51465;SDS011;37542;50.164;9.086;2022-09-24T16:54:20;7.85;;;5.47;;
51465;SDS011;37542;50.164;9.086;2022-09-24T16:58:01;7.68;;;5.05;;
51465;SDS011;37542;50.164;9.086;2022-09-24T17:06:48;6.55;;;4.10;;
51465;SDS011;37542;50.164;9.086;2022-09-24T17:11:31;7.85;;;5.00;;
51465;SDS011;37542;50.164;9.086;2022-09-24T17:15:13;8.13;;;4.53;;
51465;SDS011;37542;50.164;9.086;2022-09-24T17:18:58;6.32;;;3.72;;
51465;SDS011;37542;50.164;9.086;2022-09-24T17:22:39;4.90;;;3.15;;
51465;SDS011;37542;50.164;9.086;2022-09-24T17:26:21;6.75;;;3.40;;
51465;SDS011;37542;50.164;9.086;2022-09-24T17:34:09;6.60;;;4.67;;
51465;SDS011;37542;50.164;9.086;2022-09-24T17:37:51;17.40;;;7.35;;
51465;SDS011;37542;50.164;9.086;2022-09-24T17:41:32;9.20;;;6.30;;
51465;SDS011;37542;50.164;9.086;2022-09-24T17:45:16;8.85;;;4.80;;
51465;SDS011;37542;50.164;9.086;2022-09-24T17:49:05;7.40;;;4.82;;
51465;SDS011;37542;50.164;9.086;2022-09-24T17:57:11;5.13;;;3.67;;
51465;SDS011;37542;50.164;9.086;2022-09-24T18:05:41;6.45;;;4.35;;
51465;SDS011;37542;50.164;9.086;2022-09-24T18:14:02;5.63;;;3.88;;
51465;SDS011;37542;50.164;9.086;2022-09-24T18:17:45;5.53;;;3.10;;
51465;SDS011;37542;50.164;9.086;2022-09-24T18:21:30;4.10;;;2.63;;
51465;SDS011;37542;50.164;9.086;2022-09-24T18:30:13;4.60;;;3.00;;
51465;SDS011;37542;50.164;9.086;2022-09-24T18:34:04;5.03;;;3.20;;
51465;SDS011;37542;50.164;9.086;2022-09-24T18:37:59;9.02;;;5.28;;
51465;SDS011;37542;50.164;9.086;2022-09-24T18:45:58;6.78;;;3.15;;
51465;SDS011;37542;50.164;9.086;2022-09-24T18:49:46;4.22;;;2.90;;
51465;SDS011;37542;50.164;9.086;2022-09-24T18:53:28;4.00;;;2.40;;
51465;SDS011;37542;50.164;9.086;2022-09-24T18:57:10;4.35;;;2.33;;
51465;SDS011;37542;50.164;9.086;2022-09-24T19:00:55;4.15;;;3.75;;
51465;SDS011;37542;50.164;9.086;2022-09-24T19:04:38;4.15;;;3.75;;
51465;SDS011;37542;50.164;9.086;2022-09-24T19:13:19;6.85;;;3.70;;
51465;SDS011;37542;50.164;9.086;2022-09-24T19:17:01;5.22;;;3.30;;
51465;SDS011;37542;50.164;9.086;2022-09-24T19:25:48;4.10;;;2.90;;
51465;SDS011;37542;50.164;9.086;2022-09-24T19:34:35;3.72;;;2.53;;
51465;SDS011;37542;50.164;9.086;2022-09-24T19:42:40;4.85;;;3.00;;
51465;SDS011;37542;50.164;9.086;2022-09-24T19:46:37;5.07;;;3.42;;
51465;SDS011;37542;50.164;9.086;2022-09-24T19:50:30;3.90;;;3.20;;
51465;SDS011;37542;50.164;9.086;2022-09-24T19:54:18;5.60;;;3.33;;
51465;SDS011;37542;50.164;9.086;2022-09-24T20:01:47;5.82;;;4.20;;
51465;SDS011;37542;50.164;9.086;2022-09-24T20:05:28;5.85;;;4.53;;
51465;SDS011;37542;50.164;9.086;2022-09-24T20:09:22;5.20;;;4.40;;
51465;SDS011;37542;50.164;9.086;2022-09-24T20:13:07;9.23;;;4.32;;
51465;SDS011;37542;50.164;9.086;2022-09-24T20:16:54;7.85;;;4.68;;
51465;SDS011;37542;50.164;9.086;2022-09-24T20:20:38;6.18;;;4.88;;
51465;SDS011;37542;50.164;9.086;2022-09-24T20:24:19;5.18;;;4.30;;
51465;SDS011;37542;50.164;9.086;2022-09-24T20:28:01;5.47;;;4.45;;
51465;SDS011;37542;50.164;9.086;2022-09-24T20:35:50;5.07;;;4.35;;
51465;SDS011;37542;50.164;9.086;2022-09-24T20:39:42;5.55;;;4.63;;
51465;SDS011;37542;50.164;9.086;2022-09-24T20:43:26;6.25;;;4.68;;
51465;SDS011;37542;50.164;9.086;2022-09-24T20:53:24;6.43;;;5.20;;
51465;SDS011;37542;50.164;9.086;2022-09-24T20:57:35;6.25;;;5.18;;
51465;SDS011;37542;50.164;9.086;2022-09-24T21:06:12;7.28;;;5.43;;
51465;SDS011;37542;50.164;9.086;2022-09-24T21:10:03;6.90;;;5.25;;
51465;SDS011;37542;50.164;9.086;2022-09-24T21:33:58;8.32;;;6.57;;
51465;SDS011;37542;50.164;9.086;2022-09-24T21:38:29;6.57;;;5.78;;
51465;SDS011;37542;50.164;9.086;2022-09-24T21:42:43;7.80;;;6.55;;
51465;SDS011;37542;50.164;9.086;2022-09-24T21:46:50;8.88;;;6.85;;
51465;SDS011;37542;50.164;9.086;2022-09-24T21:51:00;6.50;;;5.03;;
51465;SDS011;37542;50.164;9.086;2022-09-24T21:59:06;8.35;;;7.43;;
51465;SDS011;37542;50.164;9.086;2022-09-24T22:03:09;7.03;;;5.95;;
51465;SDS011;37542;50.164;9.086;2022-09-24T22:07:09;9.88;;;7.63;;
51465;SDS011;37542;50.164;9.086;2022-09-24T22:11:26;7.68;;;6.88;;
51465;SDS011;37542;50.164;9.086;2022-09-24T22:15:34;8.98;;;7.10;;
51465;SDS011;37542;50.164;9.086;2022-09-24T22:19:26;8.68;;;6.60;;
51465;SDS011;37542;50.164;9.086;2022-09-24T22:28:24;8.07;;;7.15;;
51465;SDS011;37542;50.164;9.086;2022-09-24T22:32:33;8.98;;;5.85;;
51465;SDS011;37542;50.164;9.086;2022-09-24T22:37:31;13.02;;;7.22;;
51465;SDS011;37542;50.164;9.086;2022-09-24T22:41:37;5.97;;;4.95;;
51465;SDS011;37542;50.164;9.086;2022-09-24T22:45:47;7.72;;;6.30;;
51465;SDS011;37542;50.164;9.086;2022-09-24T22:54:16;8.27;;;6.72;;
51465;SDS011;37542;50.164;9.086;2022-09-24T22:58:06;7.47;;;5.97;;
51465;SDS011;37542;50.164;9.086;2022-09-24T23:01:55;8.05;;;5.78;;
51465;SDS011;37542;50.164;9.086;2022-09-24T23:05:36;8.45;;;6.57;;
51465;SDS011;37542;50.164;9.086;2022-09-24T23:09:17;6.82;;;6.00;;
51465;SDS011;37542;50.164;9.086;2022-09-24T23:13:07;7.30;;;6.00;;
51465;SDS011;37542;50.164;9.086;2022-09-24T23:16:57;8.23;;;6.75;;
51465;SDS011;37542;50.164;9.086;2022-09-24T23:20:38;11.50;;;6.00;;
51465;SDS011;37542;50.164;9.086;2022-09-24T23:24:22;8.23;;;5.93;;
51465;SDS011;37542;50.164;9.086;2022-09-24T23:28:03;7.82;;;6.45;;
51465;SDS011;37542;50.164;9.086;2022-09-24T23:31:44;8.80;;;6.95;;
51465;SDS011;37542;50.164;9.086;2022-09-24T23:35:25;9.50;;;6.60;;
51465;SDS011;37542;50.164;9.086;2022-09-24T23:39:05;8.75;;;6.55;;
51465;SDS011;37542;50.164;9.086;2022-09-24T23:42:46;9.10;;;7.22;;
51465;SDS011;37542;50.164;9.086;2022-09-24T23:46:29;7.22;;;5.85;;
51465;SDS011;37542;50.164;9.086;2022-09-24T23:50:12;9.40;;;7.75;;
51465;SDS011;37542;50.164;9.086;2022-09-24T23:53:53;9.75;;;7.70;;
51465;SDS011;37542;50.164;9.086;2022-09-24T23:57:34;9.23;;;7.70;;
